sensor_id;sensor_type;location;lat;lon;timestamp;P1;durP1;ratioP1;P2;durP2;ratioP2
21352;SDS011;10834;52.268;6.770;2022-10-17T02:39:29;16.73;;;13.40;;
21352;SDS011;10834;52.268;6.770;2022-10-17T02:42:27;20.80;;;14.47;;
21352;SDS011;10834;52.268;6.770;2022-10-17T03:12:13;21.60;;;15.10;;
21352;SDS011;10834;52.268;6.770;2022-10-17T03:31:24;18.03;;;13.63;;
21352;SDS011;10834;52.268;6.770;2022-10-17T04:04:49;19.63;;;14.13;;
21352;SDS011;10834;52.268;6.770;2022-10-17T04:46:35;23.40;;;15.83;;
21352;SDS011;10834;52.268;6.770;2022-10-17T04:53:40;26.20;;;16.80;;
21352;SDS011;10834;52.268;6.770;2022-10-17T05:00:53;22.47;;;14.97;;
21352;SDS011;10834;52.268;6.770;2022-10-17T05:04:16;22.97;;;15.70;;
21352;SDS011;10834;52.268;6.770;2022-10-17T05:08:04;24.43;;;15.57;;
21352;SDS011;10834;52.268;6.770;2022-10-17T05:23:34;20.33;;;13.80;;
21352;SDS011;10834;52.268;6.770;2022-10-17T05:31:03;17.43;;;12.93;;
21352;SDS011;10834;52.268;6.770;2022-10-17T06:01:22;15.50;;;11.23;;
21352;SDS011;10834;52.268;6.770;2022-10-17T06:16:03;15.83;;;11.97;;
21352;SDS011;10834;52.268;6.770;2022-10-17T06:34:52;20.73;;;11.20;;
21352;SDS011;10834;52.268;6.770;2022-10-17T06:38:05;14.40;;;9.33;;
21352;SDS011;10834;52.268;6.770;2022-10-17T06:41:48;11.80;;;9.60;;
21352;SDS011;10834;52.268;6.770;2022-10-17T07:15:28;9.13;;;7.87;;
21352;SDS011;10834;52.268;6.770;2022-10-17T07:44:58;9.90;;;5.97;;
21352;SDS011;10834;52.268;6.770;2022-10-17T07:52:24;9.07;;;6.33;;
21352;SDS011;10834;52.268;6.770;2022-10-17T07:59:39;9.93;;;6.27;;
21352;SDS011;10834;52.268;6.770;2022-10-17T08:07:18;10.50;;;6.63;;
21352;SDS011;10834;52.268;6.770;2022-10-17T08:10:59;7.17;;;6.17;;
21352;SDS011;10834;52.268;6.770;2022-10-17T08:40:41;11.30;;;4.83;;
21352;SDS011;10834;52.268;6.770;2022-10-17T09:17:55;9.00;;;5.57;;
21352;SDS011;10834;52.268;6.770;2022-10-17T10:23:40;8.00;;;6.33;;
21352;SDS011;10834;52.268;6.770;2022-10-17T10:27:21;11.50;;;6.97;;
21352;SDS011;10834;52.268;6.770;2022-10-17T11:08:53;8.47;;;7.57;;
21352;SDS011;10834;52.268;6.770;2022-10-17T11:31:17;10.17;;;7.57;;
21352;SDS011;10834;52.268;6.770;2022-10-17T12:44:44;12.43;;;7.90;;
21352;SDS011;10834;52.268;6.770;2022-10-17T13:02:26;12.90;;;8.80;;
21352;SDS011;10834;52.268;6.770;2022-10-17T13:09:37;11.90;;;9.10;;
21352;SDS011;10834;52.268;6.770;2022-10-17T13:12:28;18.67;;;9.40;;
21352;SDS011;10834;52.268;6.770;2022-10-17T13:15:16;12.63;;;9.50;;
21352;SDS011;10834;52.268;6.770;2022-10-17T13:18:04;11.70;;;8.80;;
21352;SDS011;10834;52.268;6.770;2022-10-17T13:20:58;11.50;;;8.87;;
21352;SDS011;10834;52.268;6.770;2022-10-17T13:23:57;12.77;;;9.57;;
21352;SDS011;10834;52.268;6.770;2022-10-17T13:26:44;13.67;;;8.73;;
21352;SDS011;10834;52.268;6.770;2022-10-17T13:29:30;11.97;;;10.00;;
21352;SDS011;10834;52.268;6.770;2022-10-17T13:32:17;9.67;;;8.27;;
21352;SDS011;10834;52.268;6.770;2022-10-17T13:35:04;10.27;;;8.40;;
21352;SDS011;10834;52.268;6.770;2022-10-17T13:37:53;10.63;;;9.03;;
21352;SDS011;10834;52.268;6.770;2022-10-17T13:40:41;12.97;;;9.93;;
21352;SDS011;10834;52.268;6.770;2022-10-17T13:43:28;10.80;;;9.60;;
21352;SDS011;10834;52.268;6.770;2022-10-17T13:46:37;13.07;;;9.23;;
21352;SDS011;10834;52.268;6.770;2022-10-17T13:49:30;11.03;;;9.03;;
21352;SDS011;10834;52.268;6.770;2022-10-17T13:52:20;12.37;;;10.13;;
21352;SDS011;10834;52.268;6.770;2022-10-17T13:55:13;12.27;;;10.93;;
21352;SDS011;10834;52.268;6.770;2022-10-17T13:58:16;16.03;;;10.90;;
21352;SDS011;10834;52.268;6.770;2022-10-17T14:01:03;12.17;;;9.20;;
21352;SDS011;10834;52.268;6.770;2022-10-17T14:03:49;11.07;;;9.97;;
21352;SDS011;10834;52.268;6.770;2022-10-17T14:06:40;13.47;;;11.77;;
21352;SDS011;10834;52.268;6.770;2022-10-17T14:09:29;15.33;;;10.47;;
21352;SDS011;10834;52.268;6.770;2022-10-17T14:12:15;14.90;;;10.97;;
21352;SDS011;10834;52.268;6.770;2022-10-17T14:15:05;16.17;;;12.03;;
21352;SDS011;10834;52.268;6.770;2022-10-17T14:18:01;11.50;;;9.80;;
21352;SDS011;10834;52.268;6.770;2022-10-17T14:20:49;16.93;;;12.70;;
21352;SDS011;10834;52.268;6.770;2022-10-17T14:23:37;15.07;;;11.40;;
21352;SDS011;10834;52.268;6.770;2022-10-17T14:26:25;15.20;;;13.33;;
21352;SDS011;10834;52.268;6.770;2022-10-17T14:29:20;17.67;;;13.20;;
21352;SDS011;10834;52.268;6.770;2022-10-17T14:32:06;17.93;;;13.00;;
21352;SDS011;10834;52.268;6.770;2022-10-17T14:34:58;15.63;;;10.73;;
21352;SDS011;10834;52.268;6.770;2022-10-17T14:37:48;16.77;;;12.87;;
21352;SDS011;10834;52.268;6.770;2022-10-17T14:40:36;17.23;;;12.93;;
21352;SDS011;10834;52.268;6.770;2022-10-17T14:43:23;17.77;;;12.60;;
21352;SDS011;10834;52.268;6.770;2022-10-17T14:46:15;17.30;;;12.87;;
21352;SDS011;10834;52.268;6.770;2022-10-17T14:49:04;17.47;;;11.50;;
21352;SDS011;10834;52.268;6.770;2022-10-17T14:55:19;16.80;;;13.03;;
21352;SDS011;10834;52.268;6.770;2022-10-17T14:58:15;16.60;;;12.37;;
21352;SDS011;10834;52.268;6.770;2022-10-17T15:01:13;14.40;;;11.47;;
21352;SDS011;10834;52.268;6.770;2022-10-17T15:03:59;17.23;;;11.90;;
21352;SDS011;10834;52.268;6.770;2022-10-17T15:06:45;16.30;;;12.33;;
21352;SDS011;10834;52.268;6.770;2022-10-17T15:09:39;20.83;;;12.30;;
21352;SDS011;10834;52.268;6.770;2022-10-17T15:12:26;15.60;;;11.87;;
21352;SDS011;10834;52.268;6.770;2022-10-17T15:15:12;17.50;;;11.67;;
21352;SDS011;10834;52.268;6.770;2022-10-17T15:17:58;12.87;;;11.40;;
21352;SDS011;10834;52.268;6.770;2022-10-17T15:20:44;11.33;;;10.13;;
21352;SDS011;10834;52.268;6.770;2022-10-17T15:23:30;12.10;;;10.83;;
21352;SDS011;10834;52.268;6.770;2022-10-17T15:26:23;13.03;;;11.43;;
21352;SDS011;10834;52.268;6.770;2022-10-17T15:29:14;15.80;;;10.60;;
21352;SDS011;10834;52.268;6.770;2022-10-17T15:32:00;13.03;;;10.30;;
21352;SDS011;10834;52.268;6.770;2022-10-17T15:34:46;14.63;;;10.77;;
21352;SDS011;10834;52.268;6.770;2022-10-17T15:37:33;16.93;;;10.03;;
21352;SDS011;10834;52.268;6.770;2022-10-17T15:40:23;10.03;;;8.97;;
21352;SDS011;10834;52.268;6.770;2022-10-17T15:43:12;11.90;;;10.70;;
21352;SDS011;10834;52.268;6.770;2022-10-17T15:45:59;14.97;;;10.60;;
21352;SDS011;10834;52.268;6.770;2022-10-17T15:48:45;11.50;;;10.30;;
21352;SDS011;10834;52.268;6.770;2022-10-17T15:51:32;12.80;;;10.60;;
21352;SDS011;10834;52.268;6.770;2022-10-17T15:54:18;11.60;;;10.40;;
21352;SDS011;10834;52.268;6.770;2022-10-17T15:57:04;10.70;;;8.40;;
21352;SDS011;10834;52.268;6.770;2022-10-17T15:59:50;16.97;;;10.17;;
21352;SDS011;10834;52.268;6.770;2022-10-17T16:02:37;13.43;;;10.40;;
21352;SDS011;10834;52.268;6.770;2022-10-17T16:05:24;13.13;;;11.37;;
21352;SDS011;10834;52.268;6.770;2022-10-17T16:08:10;14.60;;;11.33;;
21352;SDS011;10834;52.268;6.770;2022-10-17T16:10:56;13.20;;;10.93;;
21352;SDS011;10834;52.268;6.770;2022-10-17T16:13:44;10.60;;;9.40;;
21352;SDS011;10834;52.268;6.770;2022-10-17T16:16:35;10.90;;;9.60;;
21352;SDS011;10834;52.268;6.770;2022-10-17T16:19:22;16.13;;;11.03;;
21352;SDS011;10834;52.268;6.770;2022-10-17T16:22:25;11.83;;;10.63;;
21352;SDS011;10834;52.268;6.770;2022-10-17T16:25:20;9.63;;;8.73;;
21352;SDS011;10834;52.268;6.770;2022-10-17T16:28:09;13.20;;;10.23;;
21352;SDS011;10834;52.268;6.770;2022-10-17T16:30:56;15.17;;;10.80;;
21352;SDS011;10834;52.268;6.770;2022-10-17T16:33:42;17.80;;;10.43;;
21352;SDS011;10834;52.268;6.770;2022-10-17T16:36:28;13.47;;;11.43;;
21352;SDS011;10834;52.268;6.770;2022-10-17T16:39:14;13.90;;;11.10;;
21352;SDS011;10834;52.268;6.770;2022-10-17T16:42:00;14.27;;;11.10;;
21352;SDS011;10834;52.268;6.770;2022-10-17T16:44:46;14.90;;;13.13;;
21352;SDS011;10834;52.268;6.770;2022-10-17T16:47:33;18.50;;;14.23;;
21352;SDS011;10834;52.268;6.770;2022-10-17T16:50:19;24.23;;;17.17;;
21352;SDS011;10834;52.268;6.770;2022-10-17T16:53:05;20.40;;;15.13;;
21352;SDS011;10834;52.268;6.770;2022-10-17T16:55:59;20.23;;;15.20;;
21352;SDS011;10834;52.268;6.770;2022-10-17T16:58:46;15.73;;;12.97;;
21352;SDS011;10834;52.268;6.770;2022-10-17T17:01:32;21.67;;;14.77;;
21352;SDS011;10834;52.268;6.770;2022-10-17T17:04:18;22.47;;;16.17;;
21352;SDS011;10834;52.268;6.770;2022-10-17T17:07:05;20.23;;;15.73;;
21352;SDS011;10834;52.268;6.770;2022-10-17T17:09:51;21.50;;;15.93;;
21352;SDS011;10834;52.268;6.770;2022-10-17T17:12:38;17.67;;;14.00;;
21352;SDS011;10834;52.268;6.770;2022-10-17T17:15:24;20.93;;;16.43;;
21352;SDS011;10834;52.268;6.770;2022-10-17T17:18:10;22.60;;;16.37;;
21352;SDS011;10834;52.268;6.770;2022-10-17T17:21:02;21.00;;;16.70;;
21352;SDS011;10834;52.268;6.770;2022-10-17T17:23:50;16.77;;;13.97;;
21352;SDS011;10834;52.268;6.770;2022-10-17T17:26:37;25.00;;;17.67;;
21352;SDS011;10834;52.268;6.770;2022-10-17T17:29:23;32.40;;;20.53;;
21352;SDS011;10834;52.268;6.770;2022-10-17T17:32:10;25.33;;;22.40;;
21352;SDS011;10834;52.268;6.770;2022-10-17T17:34:56;33.67;;;25.27;;
21352;SDS011;10834;52.268;6.770;2022-10-17T17:37:42;28.77;;;22.60;;
21352;SDS011;10834;52.268;6.770;2022-10-17T17:40:28;26.97;;;21.17;;
21352;SDS011;10834;52.268;6.770;2022-10-17T17:43:14;27.43;;;20.00;;
21352;SDS011;10834;52.268;6.770;2022-10-17T17:46:00;26.43;;;18.37;;
21352;SDS011;10834;52.268;6.770;2022-10-17T17:48:47;28.70;;;21.63;;
21352;SDS011;10834;52.268;6.770;2022-10-17T17:51:34;26.03;;;19.37;;
21352;SDS011;10834;52.268;6.770;2022-10-17T17:54:22;27.37;;;20.63;;
21352;SDS011;10834;52.268;6.770;2022-10-17T17:57:08;30.77;;;21.70;;
21352;SDS011;10834;52.268;6.770;2022-10-17T17:59:54;45.03;;;33.33;;
21352;SDS011;10834;52.268;6.770;2022-10-17T18:02:40;30.73;;;23.73;;
21352;SDS011;10834;52.268;6.770;2022-10-17T18:05:26;33.30;;;23.33;;
21352;SDS011;10834;52.268;6.770;2022-10-17T18:08:13;32.30;;;23.17;;
21352;SDS011;10834;52.268;6.770;2022-10-17T18:10:59;32.17;;;23.60;;
21352;SDS011;10834;52.268;6.770;2022-10-17T18:13:45;36.30;;;24.63;;
21352;SDS011;10834;52.268;6.770;2022-10-17T18:16:32;37.07;;;25.17;;
21352;SDS011;10834;52.268;6.770;2022-10-17T18:19:20;37.37;;;26.37;;
21352;SDS011;10834;52.268;6.770;2022-10-17T18:22:08;37.60;;;24.93;;
21352;SDS011;10834;52.268;6.770;2022-10-17T18:24:54;34.97;;;24.43;;
21352;SDS011;10834;52.268;6.770;2022-10-17T18:27:40;38.57;;;25.17;;
21352;SDS011;10834;52.268;6.770;2022-10-17T18:30:26;41.63;;;25.30;;
21352;SDS011;10834;52.268;6.770;2022-10-17T18:33:13;37.40;;;24.00;;
21352;SDS011;10834;52.268;6.770;2022-10-17T18:36:08;33.37;;;23.23;;
21352;SDS011;10834;52.268;6.770;2022-10-17T18:38:56;35.10;;;25.00;;
21352;SDS011;10834;52.268;6.770;2022-10-17T18:41:44;35.00;;;23.67;;
21352;SDS011;10834;52.268;6.770;2022-10-17T18:44:31;35.97;;;24.47;;
21352;SDS011;10834;52.268;6.770;2022-10-17T18:47:17;36.27;;;23.57;;
21352;SDS011;10834;52.268;6.770;2022-10-17T18:50:03;38.33;;;24.13;;
21352;SDS011;10834;52.268;6.770;2022-10-17T18:52:49;28.63;;;20.03;;
21352;SDS011;10834;52.268;6.770;2022-10-17T18:55:37;32.77;;;24.17;;
21352;SDS011;10834;52.268;6.770;2022-10-17T18:58:23;35.17;;;25.13;;
21352;SDS011;10834;52.268;6.770;2022-10-17T19:01:11;36.33;;;24.30;;
21352;SDS011;10834;52.268;6.770;2022-10-17T19:03:59;43.20;;;25.73;;
21352;SDS011;10834;52.268;6.770;2022-10-17T19:06:45;47.47;;;29.20;;
21352;SDS011;10834;52.268;6.770;2022-10-17T19:09:32;45.00;;;28.10;;
21352;SDS011;10834;52.268;6.770;2022-10-17T19:12:18;43.47;;;27.47;;
21352;SDS011;10834;52.268;6.770;2022-10-17T19:15:04;48.30;;;30.20;;
21352;SDS011;10834;52.268;6.770;2022-10-17T19:17:50;44.43;;;27.90;;
21352;SDS011;10834;52.268;6.770;2022-10-17T19:20:36;44.87;;;27.10;;
21352;SDS011;10834;52.268;6.770;2022-10-17T19:23:22;52.83;;;28.60;;
21352;SDS011;10834;52.268;6.770;2022-10-17T19:26:10;45.57;;;28.37;;
21352;SDS011;10834;52.268;6.770;2022-10-17T19:28:57;37.30;;;25.03;;
21352;SDS011;10834;52.268;6.770;2022-10-17T19:31:45;44.57;;;27.87;;
21352;SDS011;10834;52.268;6.770;2022-10-17T19:34:31;43.23;;;29.10;;
21352;SDS011;10834;52.268;6.770;2022-10-17T19:37:18;51.07;;;30.03;;
21352;SDS011;10834;52.268;6.770;2022-10-17T19:40:04;46.47;;;30.07;;
21352;SDS011;10834;52.268;6.770;2022-10-17T19:42:51;50.63;;;30.37;;
21352;SDS011;10834;52.268;6.770;2022-10-17T19:45:39;51.93;;;31.27;;
21352;SDS011;10834;52.268;6.770;2022-10-17T19:48:25;55.93;;;30.07;;
21352;SDS011;10834;52.268;6.770;2022-10-17T19:51:13;52.23;;;30.07;;
21352;SDS011;10834;52.268;6.770;2022-10-17T19:54:00;68.07;;;42.73;;
21352;SDS011;10834;52.268;6.770;2022-10-17T19:56:46;67.17;;;39.40;;
21352;SDS011;10834;52.268;6.770;2022-10-17T19:59:32;58.87;;;33.20;;
21352;SDS011;10834;52.268;6.770;2022-10-17T20:02:18;55.90;;;32.17;;
21352;SDS011;10834;52.268;6.770;2022-10-17T20:05:05;63.63;;;40.07;;
21352;SDS011;10834;52.268;6.770;2022-10-17T20:07:56;67.10;;;37.27;;
21352;SDS011;10834;52.268;6.770;2022-10-17T20:10:42;64.10;;;35.73;;
21352;SDS011;10834;52.268;6.770;2022-10-17T20:13:28;64.70;;;36.00;;
21352;SDS011;10834;52.268;6.770;2022-10-17T20:16:16;56.40;;;34.20;;
21352;SDS011;10834;52.268;6.770;2022-10-17T20:19:09;43.80;;;27.83;;
21352;SDS011;10834;52.268;6.770;2022-10-17T20:21:56;44.83;;;28.80;;
21352;SDS011;10834;52.268;6.770;2022-10-17T20:24:42;40.73;;;26.33;;
21352;SDS011;10834;52.268;6.770;2022-10-17T20:27:28;45.20;;;28.37;;
21352;SDS011;10834;52.268;6.770;2022-10-17T20:30:15;32.43;;;23.33;;
21352;SDS011;10834;52.268;6.770;2022-10-17T20:33:01;42.27;;;27.67;;
21352;SDS011;10834;52.268;6.770;2022-10-17T20:35:47;48.30;;;28.27;;
21352;SDS011;10834;52.268;6.770;2022-10-17T20:38:34;46.67;;;27.10;;
21352;SDS011;10834;52.268;6.770;2022-10-17T20:41:20;39.30;;;25.10;;
21352;SDS011;10834;52.268;6.770;2022-10-17T20:44:07;40.93;;;25.70;;
21352;SDS011;10834;52.268;6.770;2022-10-17T20:46:53;38.67;;;25.57;;
21352;SDS011;10834;52.268;6.770;2022-10-17T20:49:39;49.23;;;28.47;;
21352;SDS011;10834;52.268;6.770;2022-10-17T20:52:25;37.77;;;23.70;;
21352;SDS011;10834;52.268;6.770;2022-10-17T20:55:11;45.40;;;29.23;;
21352;SDS011;10834;52.268;6.770;2022-10-17T20:57:57;52.57;;;28.50;;
21352;SDS011;10834;52.268;6.770;2022-10-17T21:00:43;50.90;;;27.37;;
21352;SDS011;10834;52.268;6.770;2022-10-17T21:03:30;43.00;;;24.20;;
21352;SDS011;10834;52.268;6.770;2022-10-17T21:06:18;47.93;;;26.77;;
21352;SDS011;10834;52.268;6.770;2022-10-17T21:09:05;43.57;;;26.27;;
21352;SDS011;10834;52.268;6.770;2022-10-17T21:11:51;51.90;;;27.27;;
21352;SDS011;10834;52.268;6.770;2022-10-17T21:14:40;40.07;;;24.97;;
21352;SDS011;10834;52.268;6.770;2022-10-17T21:17:26;35.33;;;21.37;;
21352;SDS011;10834;52.268;6.770;2022-10-17T21:20:12;60.47;;;25.20;;
21352;SDS011;10834;52.268;6.770;2022-10-17T21:22:58;43.07;;;25.10;;
21352;SDS011;10834;52.268;6.770;2022-10-17T21:25:44;33.07;;;19.73;;
21352;SDS011;10834;52.268;6.770;2022-10-17T21:28:31;46.53;;;23.60;;
21352;SDS011;10834;52.268;6.770;2022-10-17T21:31:21;36.27;;;23.70;;
21352;SDS011;10834;52.268;6.770;2022-10-17T21:34:16;40.10;;;23.47;;
21352;SDS011;10834;52.268;6.770;2022-10-17T21:37:08;44.17;;;24.60;;
21352;SDS011;10834;52.268;6.770;2022-10-17T21:39:54;28.53;;;19.87;;
21352;SDS011;10834;52.268;6.770;2022-10-17T21:42:40;27.60;;;19.53;;
21352;SDS011;10834;52.268;6.770;2022-10-17T21:45:26;34.37;;;21.10;;
21352;SDS011;10834;52.268;6.770;2022-10-17T21:48:12;32.00;;;20.10;;
21352;SDS011;10834;52.268;6.770;2022-10-17T21:50:59;28.67;;;19.23;;
21352;SDS011;10834;52.268;6.770;2022-10-17T21:53:47;37.83;;;20.93;;
21352;SDS011;10834;52.268;6.770;2022-10-17T21:56:34;28.73;;;20.37;;
21352;SDS011;10834;52.268;6.770;2022-10-17T21:59:20;38.03;;;23.40;;
21352;SDS011;10834;52.268;6.770;2022-10-17T22:02:06;27.57;;;18.33;;
21352;SDS011;10834;52.268;6.770;2022-10-17T22:04:52;35.50;;;21.30;;
21352;SDS011;10834;52.268;6.770;2022-10-17T22:07:38;25.43;;;17.43;;
21352;SDS011;10834;52.268;6.770;2022-10-17T22:10:24;24.60;;;18.43;;
21352;SDS011;10834;52.268;6.770;2022-10-17T22:13:11;30.00;;;19.97;;
21352;SDS011;10834;52.268;6.770;2022-10-17T22:16:00;42.30;;;22.43;;
21352;SDS011;10834;52.268;6.770;2022-10-17T22:18:47;26.50;;;17.87;;
21352;SDS011;10834;52.268;6.770;2022-10-17T22:21:34;30.37;;;21.00;;
21352;SDS011;10834;52.268;6.770;2022-10-17T22:24:21;33.63;;;20.37;;
21352;SDS011;10834;52.268;6.770;2022-10-17T22:27:07;24.53;;;17.63;;
21352;SDS011;10834;52.268;6.770;2022-10-17T22:29:54;34.23;;;20.07;;
21352;SDS011;10834;52.268;6.770;2022-10-17T22:32:40;32.57;;;22.37;;
21352;SDS011;10834;52.268;6.770;2022-10-17T22:35:26;34.03;;;22.53;;
21352;SDS011;10834;52.268;6.770;2022-10-17T22:38:13;28.90;;;20.47;;
21352;SDS011;10834;52.268;6.770;2022-10-17T22:40:59;28.17;;;18.70;;
21352;SDS011;10834;52.268;6.770;2022-10-17T22:43:45;41.13;;;23.90;;
21352;SDS011;10834;52.268;6.770;2022-10-17T22:46:32;36.63;;;22.13;;
21352;SDS011;10834;52.268;6.770;2022-10-17T22:49:18;40.13;;;25.13;;
21352;SDS011;10834;52.268;6.770;2022-10-17T22:52:04;30.63;;;19.77;;
21352;SDS011;10834;52.268;6.770;2022-10-17T22:54:50;60.07;;;31.20;;
21352;SDS011;10834;52.268;6.770;2022-10-17T22:57:36;61.83;;;29.77;;
21352;SDS011;10834;52.268;6.770;2022-10-17T23:00:22;55.80;;;27.80;;
21352;SDS011;10834;52.268;6.770;2022-10-17T23:03:08;53.53;;;29.13;;
21352;SDS011;10834;52.268;6.770;2022-10-17T23:05:54;45.00;;;25.40;;
21352;SDS011;10834;52.268;6.770;2022-10-17T23:08:41;49.73;;;26.23;;
21352;SDS011;10834;52.268;6.770;2022-10-17T23:11:27;71.03;;;31.43;;
21352;SDS011;10834;52.268;6.770;2022-10-17T23:14:13;47.13;;;27.87;;
21352;SDS011;10834;52.268;6.770;2022-10-17T23:17:00;53.17;;;26.90;;
21352;SDS011;10834;52.268;6.770;2022-10-17T23:19:45;45.57;;;22.83;;
21352;SDS011;10834;52.268;6.770;2022-10-17T23:22:32;82.80;;;32.53;;
21352;SDS011;10834;52.268;6.770;2022-10-17T23:25:18;46.47;;;24.57;;
21352;SDS011;10834;52.268;6.770;2022-10-17T23:28:04;67.43;;;31.93;;
21352;SDS011;10834;52.268;6.770;2022-10-17T23:30:52;96.17;;;34.07;;
21352;SDS011;10834;52.268;6.770;2022-10-17T23:33:38;119.67;;;38.13;;
21352;SDS011;10834;52.268;6.770;2022-10-17T23:36:25;252.00;;;53.40;;
21352;SDS011;10834;52.268;6.770;2022-10-17T23:39:11;113.07;;;39.27;;
21352;SDS011;10834;52.268;6.770;2022-10-17T23:41:57;118.93;;;42.50;;
21352;SDS011;10834;52.268;6.770;2022-10-17T23:44:43;200.43;;;52.13;;
21352;SDS011;10834;52.268;6.770;2022-10-17T23:47:29;207.87;;;52.90;;
21352;SDS011;10834;52.268;6.770;2022-10-17T23:50:15;126.50;;;44.70;;
21352;SDS011;10834;52.268;6.770;2022-10-17T23:53:01;138.73;;;44.30;;
21352;SDS011;10834;52.268;6.770;2022-10-17T23:55:47;158.20;;;46.60;;
21352;SDS011;10834;52.268;6.770;2022-10-17T23:58:34;170.70;;;45.03;;
